Time;durP1;ratioP1;P1;durP2;ratioP2;P2;SDS_P1;SDS_P2;PMS_P1;PMS_P2;Temp;Humidity;BMP_temperature;BMP_pressure;BME280_temperature;BME280_humidity;BME280_pressure;Samples;Min_cycle;Max_cycle;Signal;HPM_P1;HPM_P2
2022/10/18 00:01:06;;;;;;;10.27;6.75;;;25.10;55.00;;;;;;7719147;22;81510;-51
2022/10/18 00:04:06;;;;;;;11.25;7.03;;;25.10;54.90;;;;;;7715356;22;80192;-50
2022/10/18 00:07:07;;;;;;;12.32;7.57;;;25.10;54.80;;;;;;7718922;22;80659;-51
2022/10/18 00:10:07;;;;;;;10.88;7.13;;;25.10;54.90;;;;;;7716550;22;80346;-50
2022/10/18 00:13:08;;;;;;;12.00;7.47;;;25.10;54.90;;;;;;7716532;22;80504;-54
2022/10/18 00:16:09;;;;;;;13.50;7.38;;;25.00;54.80;;;;;;7716688;22;80490;-49
2022/10/18 00:19:09;;;;;;;13.30;7.28;;;25.10;54.80;;;;;;7714531;22;80834;-53
2022/10/18 00:22:10;;;;;;;11.05;7.75;;;25.10;54.80;;;;;;7715706;22;80372;-52
2022/10/18 00:25:10;;;;;;;11.35;7.30;;;25.10;54.70;;;;;;7719041;22;80368;-49
2022/10/18 00:28:11;;;;;;;10.80;7.10;;;25.10;54.70;;;;;;7717661;22;81019;-51
2022/10/18 00:31:12;;;;;;;10.45;7.68;;;25.10;54.60;;;;;;7719986;22;80156;-52
2022/10/18 00:34:12;;;;;;;10.73;6.97;;;25.10;54.50;;;;;;7715607;22;81174;-52
2022/10/18 00:37:13;;;;;;;8.85;6.55;;;25.00;54.50;;;;;;7717304;22;80433;-53
2022/10/18 00:40:13;;;;;;;9.50;7.13;;;25.10;54.50;;;;;;7719389;22;80392;-54
2022/10/18 00:43:14;;;;;;;9.38;6.65;;;25.10;54.70;;;;;;7714005;22;80621;-52
2022/10/18 00:46:14;;;;;;;10.32;7.68;;;25.10;54.60;;;;;;7711657;22;80481;-52
2022/10/18 00:49:15;;;;;;;10.68;7.47;;;25.10;54.50;;;;;;7715207;22;81120;-50
2022/10/18 00:52:15;;;;;;;11.45;7.47;;;25.00;54.40;;;;;;7717763;22;80152;-50
2022/10/18 00:55:16;;;;;;;11.50;7.28;;;25.00;54.40;;;;;;7720108;22;81237;-50
2022/10/18 00:58:18;;;;;;;11.10;6.72;;;25.00;54.40;;;;;;7715144;22;80710;-49
2022/10/18 01:01:18;;;;;;;9.57;6.78;;;25.00;54.30;;;;;;7715517;22;80276;-52
2022/10/18 01:04:19;;;;;;;10.20;6.25;;;25.10;54.60;;;;;;7715932;22;80056;-50
2022/10/18 01:07:20;;;;;;;10.70;6.05;;;25.10;54.40;;;;;;7690753;22;82728;-56
2022/10/18 01:10:20;;;;;;;9.52;6.47;;;25.10;54.40;;;;;;7715250;22;80188;-69
2022/10/18 01:13:21;;;;;;;10.00;6.30;;;25.10;54.60;;;;;;7718422;22;82132;-65
2022/10/18 01:16:21;;;;;;;8.32;6.53;;;25.10;54.50;;;;;;7718235;22;81007;-66
2022/10/18 01:19:22;;;;;;;10.05;6.28;;;25.00;54.40;;;;;;7715478;22;80087;-64
2022/10/18 01:22:22;;;;;;;8.23;5.85;;;25.10;54.30;;;;;;7719832;22;80748;-65
2022/10/18 01:25:23;;;;;;;8.20;6.10;;;25.00;54.40;;;;;;7717186;22;82187;-66
2022/10/18 01:28:24;;;;;;;12.57;6.47;;;25.00;54.20;;;;;;7715102;22;80443;-66
2022/10/18 01:31:24;;;;;;;7.55;5.80;;;25.00;54.30;;;;;;7717718;22;80385;-66
2022/10/18 01:34:25;;;;;;;7.07;5.55;;;25.10;54.40;;;;;;7720436;22;80242;-65
2022/10/18 01:37:25;;;;;;;9.38;6.63;;;25.00;54.10;;;;;;7717017;22;79959;-65
2022/10/18 01:40:26;;;;;;;11.35;6.13;;;25.00;54.00;;;;;;7720019;22;80956;-65
2022/10/18 01:43:26;;;;;;;9.93;5.90;;;25.00;53.90;;;;;;7717295;22;81892;-66
2022/10/18 01:46:27;;;;;;;10.63;6.07;;;25.00;54.00;;;;;;7718355;22;80957;-53
2022/10/18 01:49:28;;;;;;;9.18;6.47;;;25.00;53.90;;;;;;7714933;22;82148;-53
2022/10/18 01:52:28;;;;;;;8.05;6.20;;;24.90;53.80;;;;;;7715442;22;80434;-54
2022/10/18 01:55:29;;;;;;;8.13;6.18;;;24.90;53.80;;;;;;7715736;22;80942;-52
2022/10/18 01:58:29;;;;;;;11.82;6.72;;;24.90;53.80;;;;;;7715418;22;80600;-54
2022/10/18 02:01:30;;;;;;;9.60;6.38;;;24.90;53.70;;;;;;7713297;22;80327;-51
2022/10/18 02:04:30;;;;;;;10.80;6.63;;;24.90;53.70;;;;;;7715488;22;80372;-52
2022/10/18 02:07:31;;;;;;;11.65;6.80;;;24.90;54.30;;;;;;7716893;22;80194;-54
2022/10/18 02:10:31;;;;;;;9.93;6.38;;;24.90;53.60;;;;;;7716181;22;81171;-56
2022/10/18 02:13:32;;;;;;;9.52;6.68;;;24.90;53.60;;;;;;7717254;22;81535;-54
2022/10/18 02:16:32;;;;;;;9.23;6.25;;;24.90;53.60;;;;;;7714509;22;80455;-54
2022/10/18 02:19:33;;;;;;;8.95;6.18;;;24.90;53.70;;;;;;7716170;22;80267;-52
2022/10/18 02:22:33;;;;;;;8.90;6.25;;;24.90;53.60;;;;;;7718542;22;80762;-55
2022/10/18 02:25:34;;;;;;;8.48;5.80;;;24.90;53.60;;;;;;7716871;22;80317;-54
2022/10/18 02:28:34;;;;;;;10.15;6.20;;;24.90;53.60;;;;;;7715273;22;81472;-56
2022/10/18 02:31:35;;;;;;;6.40;4.72;;;24.90;53.50;;;;;;7714895;22;80401;-53
2022/10/18 02:34:35;;;;;;;7.07;5.78;;;24.90;53.40;;;;;;7714501;22;80128;-50
2022/10/18 02:37:36;;;;;;;7.80;5.70;;;25.00;53.40;;;;;;7717045;22;80906;-55
2022/10/18 02:40:36;;;;;;;7.38;5.40;;;25.00;53.50;;;;;;7714729;22;80440;-56
2022/10/18 02:43:37;;;;;;;8.32;5.45;;;25.00;53.60;;;;;;7690022;22;83560;-52
2022/10/18 02:46:37;;;;;;;8.48;5.65;;;25.00;53.90;;;;;;7715253;22;80457;-54
2022/10/18 02:49:38;;;;;;;8.05;5.32;;;25.00;53.40;;;;;;7713920;22;80799;-52
2022/10/18 02:52:39;;;;;;;8.82;5.68;;;25.00;53.70;;;;;;7714329;22;81100;-54
2022/10/18 02:55:39;;;;;;;8.15;5.60;;;25.00;54.50;;;;;;7717016;22;80372;-56
2022/10/18 02:58:40;;;;;;;6.30;5.05;;;24.90;53.50;;;;;;7714500;22;80378;-53
2022/10/18 03:01:40;;;;;;;7.18;5.47;;;24.90;53.50;;;;;;7689317;22;81693;-55
2022/10/18 03:04:41;;;;;;;8.15;5.88;;;24.90;53.60;;;;;;7717461;22;80354;-54
2022/10/18 03:07:41;;;;;;;6.88;5.30;;;24.90;53.70;;;;;;7716876;22;80114;-53
2022/10/18 03:10:42;;;;;;;8.55;4.85;;;24.90;53.70;;;;;;7717289;22;80474;-55
2022/10/18 03:13:42;;;;;;;9.85;5.20;;;25.00;53.60;;;;;;7716807;22;80168;-54
2022/10/18 03:16:43;;;;;;;7.00;5.25;;;24.90;53.50;;;;;;7717221;22;80339;-54
2022/10/18 03:19:44;;;;;;;7.50;5.40;;;24.90;53.50;;;;;;7716974;22;80346;-55
2022/10/18 03:22:44;;;;;;;8.73;5.60;;;25.00;53.50;;;;;;7716629;22;80039;-53
2022/10/18 03:25:45;;;;;;;6.75;5.50;;;24.90;53.40;;;;;;7718386;22;80031;-55
2022/10/18 03:28:45;;;;;;;6.78;5.55;;;24.90;53.40;;;;;;7715415;22;80175;-54
2022/10/18 03:31:46;;;;;;;7.78;5.60;;;25.00;53.40;;;;;;7718478;22;81483;-54
2022/10/18 03:34:46;;;;;;;6.13;4.80;;;25.00;53.40;;;;;;7717198;22;80577;-51
2022/10/18 03:37:47;;;;;;;8.25;5.45;;;24.90;53.50;;;;;;7717813;22;80796;-54
2022/10/18 03:40:48;;;;;;;8.18;5.57;;;25.00;53.20;;;;;;7714184;22;81707;-55
2022/10/18 03:43:48;;;;;;;9.05;5.00;;;25.00;53.30;;;;;;7716348;22;80627;-56
2022/10/18 03:46:49;;;;;;;7.03;5.60;;;25.00;53.40;;;;;;7712086;22;80537;-54
2022/10/18 03:49:49;;;;;;;8.52;5.95;;;25.00;53.40;;;;;;7715123;22;81136;-56
2022/10/18 03:52:50;;;;;;;8.80;4.70;;;25.00;53.70;;;;;;7716470;22;80543;-55
2022/10/18 03:55:51;;;;;;;8.50;5.18;;;25.00;53.60;;;;;;7717149;22;80350;-54
2022/10/18 03:58:51;;;;;;;6.93;5.00;;;25.00;53.50;;;;;;7713607;22;80246;-55
2022/10/18 04:01:52;;;;;;;6.03;4.70;;;25.00;53.70;;;;;;7711157;22;80811;-55
2022/10/18 04:04:53;;;;;;;6.78;5.25;;;25.00;53.80;;;;;;7715875;22;80611;-53
2022/10/18 04:07:53;;;;;;;6.00;4.82;;;25.00;53.50;;;;;;7715518;22;81340;-52
2022/10/18 04:10:54;;;;;;;8.07;5.28;;;25.00;53.90;;;;;;7716515;22;80713;-52
2022/10/18 04:13:55;;;;;;;6.70;4.82;;;25.00;54.20;;;;;;7717451;22;80302;-53
2022/10/18 04:16:55;;;;;;;7.47;5.35;;;25.00;54.00;;;;;;7716913;22;80255;-52
2022/10/18 04:19:56;;;;;;;9.48;4.75;;;25.00;54.10;;;;;;7715541;22;80479;-62
2022/10/18 04:22:57;;;;;;;8.32;5.47;;;25.10;54.20;;;;;;7712745;22;81345;-60
2022/10/18 04:59:04;;;;;;;9.82;5.88;;;25.10;53.70;;;;;;7678648;22;80059;-50
2022/10/18 05:02:05;;;;;;;14.55;5.60;;;25.10;54.10;;;;;;7676069;22;81890;-58
2022/10/18 05:05:05;;;;;;;9.50;5.50;;;25.10;53.70;;;;;;7680477;22;80696;-60
2022/10/18 05:08:06;;;;;;;12.32;5.57;;;25.10;53.80;;;;;;7677984;22;81633;-62
2022/10/18 05:11:06;;;;;;;10.52;5.40;;;25.00;53.90;;;;;;7676411;22;80949;-58
2022/10/18 05:14:09;;;;;;;10.52;5.40;;;25.10;54.30;;;;;;7676609;22;80783;-56
2022/10/18 05:17:09;;;;;;;17.17;6.28;;;25.00;54.10;;;;;;7673866;22;80624;-55
2022/10/18 05:20:10;;;;;;;9.68;5.93;;;25.00;53.30;;;;;;7676424;22;81767;-55
2022/10/18 05:23:10;;;;;;;9.48;5.95;;;24.90;52.90;;;;;;7677502;22;80750;-54
2022/10/18 05:26:11;;;;;;;11.25;6.35;;;24.90;53.10;;;;;;7678088;22;80933;-54
2022/10/18 05:29:11;;;;;;;10.38;5.97;;;24.80;52.40;;;;;;7669031;22;81896;-50
2022/10/18 05:32:12;;;;;;;10.10;6.28;;;24.80;52.80;;;;;;7659882;22;80439;-50
2022/10/18 05:35:12;;;;;;;12.13;6.65;;;24.80;52.70;;;;;;7670294;22;80858;-48
2022/10/18 05:38:13;;;;;;;17.02;6.78;;;24.80;52.30;;;;;;7673544;22;80770;-51
2022/10/18 05:41:13;;;;;;;16.63;6.80;;;24.80;52.20;;;;;;7673051;22;80531;-49
2022/10/18 05:44:14;;;;;;;17.95;6.68;;;24.70;51.90;;;;;;7673242;22;80903;-50
2022/10/18 05:47:15;;;;;;;12.30;7.07;;;24.70;51.90;;;;;;7665101;22;81412;-53
2022/10/18 05:50:15;;;;;;;14.32;7.57;;;24.70;51.60;;;;;;7667629;22;80563;-50
2022/10/18 05:53:16;;;;;;;12.90;7.35;;;24.70;51.40;;;;;;7667839;22;80272;-52
2022/10/18 05:56:16;;;;;;;13.75;7.80;;;24.70;51.30;;;;;;7678048;22;81063;-53
2022/10/18 05:59:17;;;;;;;19.58;8.95;;;24.70;51.10;;;;;;7715731;22;80329;-50
2022/10/18 06:02:17;;;;;;;17.15;9.57;;;24.70;51.00;;;;;;7716126;22;80852;-48
2022/10/18 06:05:18;;;;;;;16.40;8.75;;;24.80;50.80;;;;;;7714007;22;80590;-51
2022/10/18 06:08:19;;;;;;;16.40;8.30;;;24.80;50.70;;;;;;7689677;22;81659;-52
2022/10/18 06:11:19;;;;;;;15.88;8.50;;;24.90;50.50;;;;;;7711291;22;80458;-51
2022/10/18 06:14:20;;;;;;;11.63;7.85;;;24.90;50.50;;;;;;7716837;22;80837;-52
2022/10/18 06:17:20;;;;;;;12.93;7.35;;;24.90;50.30;;;;;;7717952;22;80902;-53
2022/10/18 06:20:21;;;;;;;18.63;8.70;;;24.90;50.20;;;;;;7717286;22;80111;-53
2022/10/18 06:23:21;;;;;;;16.10;8.60;;;24.90;50.10;;;;;;7708777;22;80732;-51
2022/10/18 06:26:22;;;;;;;18.83;8.77;;;24.90;50.00;;;;;;7696768;22;80730;-51
2022/10/18 06:29:22;;;;;;;21.20;7.95;;;24.90;49.80;;;;;;7710778;22;81087;-51
2022/10/18 06:32:23;;;;;;;16.83;8.73;;;25.00;49.70;;;;;;7713105;22;80347;-50
2022/10/18 06:35:23;;;;;;;17.17;8.05;;;24.90;49.40;;;;;;7715689;22;80370;-49
2022/10/18 06:38:24;;;;;;;18.83;8.85;;;25.00;49.60;;;;;;7719964;22;80287;-51
2022/10/18 06:41:24;;;;;;;22.80;8.30;;;24.90;49.30;;;;;;7709944;22;80444;-52
2022/10/18 06:44:25;;;;;;;18.20;8.55;;;25.00;49.10;;;;;;7712152;22;81145;-50
2022/10/18 06:47:26;;;;;;;23.45;9.38;;;25.00;49.30;;;;;;7716006;22;80178;-52
2022/10/18 06:50:26;;;;;;;22.90;8.13;;;25.00;49.10;;;;;;7720511;22;81177;-50
2022/10/18 06:53:27;;;;;;;16.80;8.13;;;25.00;48.80;;;;;;7704536;22;80859;-59
2022/10/18 06:56:27;;;;;;;18.92;8.60;;;25.10;48.80;;;;;;7678731;22;80953;-54
2022/10/18 06:59:28;;;;;;;20.08;9.25;;;25.10;48.70;;;;;;7715737;22;80105;-53
2022/10/18 07:02:28;;;;;;;16.08;8.85;;;25.10;48.40;;;;;;7716577;22;80727;-47
2022/10/18 07:05:29;;;;;;;11.35;7.88;;;25.10;48.40;;;;;;7718312;22;80877;-51
2022/10/18 07:08:30;;;;;;;16.75;8.35;;;25.20;48.20;;;;;;7716084;22;80745;-51
2022/10/18 07:11:30;;;;;;;14.30;7.57;;;25.20;48.00;;;;;;7718073;22;80639;-50
2022/10/18 07:14:31;;;;;;;14.40;8.32;;;25.20;48.10;;;;;;7716721;22;80557;-51
2022/10/18 07:17:31;;;;;;;19.00;8.55;;;25.20;48.00;;;;;;7716076;22;81070;-50
2022/10/18 07:20:32;;;;;;;15.38;9.02;;;25.20;47.90;;;;;;7717623;22;79975;-48
2022/10/18 07:23:33;;;;;;;17.83;8.75;;;25.30;48.10;;;;;;7715649;22;80489;-52
2022/10/18 07:26:33;;;;;;;11.93;7.10;;;25.30;48.20;;;;;;7715827;22;80784;-52
2022/10/18 07:29:37;;;;;;;14.02;8.30;;;25.40;47.90;;;;;;7717585;22;80000;-49
2022/10/18 07:32:37;;;;;;;12.18;7.72;;;25.40;48.00;;;;;;7718796;22;80172;-51
2022/10/18 07:35:38;;;;;;;14.73;7.78;;;25.50;48.00;;;;;;7701935;22;80975;-50
2022/10/18 07:38:38;;;;;;;15.52;8.15;;;25.50;47.90;;;;;;7698684;22;80759;-51
2022/10/18 07:41:39;;;;;;;18.02;10.15;;;25.50;48.00;;;;;;7699959;22;80402;-47
2022/10/18 07:44:39;;;;;;;42.58;21.33;;;25.50;47.90;;;;;;7691784;22;84053;-53
2022/10/18 07:47:40;;;;;;;83.75;36.67;;;25.50;47.80;;;;;;7690831;22;83541;-50
2022/10/18 07:50:40;;;;;;;99.85;46.90;;;25.50;48.10;;;;;;7693549;22;84289;-52
2022/10/18 07:53:41;;;;;;;138.05;63.97;;;25.60;48.10;;;;;;7694782;22;83334;-51
2022/10/18 07:56:41;;;;;;;187.65;86.50;;;25.60;48.00;;;;;;7696786;22;83464;-52
2022/10/18 07:59:45;;;;;;;220.10;94.90;;;25.70;48.00;;;;;;7702586;22;83216;-51
2022/10/18 08:02:45;;;;;;;239.48;115.28;;;25.80;48.00;;;;;;7704461;22;83826;-59
2022/10/18 08:05:46;;;;;;;262.98;119.93;;;25.80;48.70;;;;;;7705968;22;85508;-49
2022/10/18 08:08:46;;;;;;;271.88;126.47;;;25.90;48.40;;;;;;7703641;22;86810;-49
2022/10/18 08:11:47;;;;;;;303.08;132.18;;;25.90;48.50;;;;;;7682892;22;86505;-52
2022/10/18 08:14:47;;;;;;;241.57;116.05;;;26.00;48.50;;;;;;7691189;22;85692;-50
2022/10/18 08:17:48;;;;;;;190.68;90.63;;;26.00;48.20;;;;;;7688999;22;86154;-49
2022/10/18 08:20:48;;;;;;;193.63;93.22;;;26.00;47.60;;;;;;7696746;22;85468;-49
2022/10/18 08:23:49;;;;;;;207.80;95.30;;;26.10;48.10;;;;;;7662062;22;84794;-51
2022/10/18 08:26:49;;;;;;;185.18;88.28;;;26.20;48.20;;;;;;7689499;22;84057;-50
2022/10/18 08:29:50;;;;;;;170.93;81.75;;;26.20;48.30;;;;;;7692304;22;88910;-62
2022/10/18 08:32:50;;;;;;;138.93;68.68;;;26.20;48.30;;;;;;7694228;22;83450;-62
2022/10/18 08:35:51;;;;;;;136.65;66.13;;;26.30;48.10;;;;;;7694321;22;84376;-61
2022/10/18 08:38:51;;;;;;;129.35;62.20;;;26.30;48.10;;;;;;7690046;22;83876;-62
2022/10/18 08:41:52;;;;;;;109.38;53.85;;;26.40;48.10;;;;;;7695494;22;84514;-67
2022/10/18 08:44:52;;;;;;;95.20;46.78;;;26.40;47.90;;;;;;7693261;22;84464;-62
2022/10/18 08:47:56;;;;;;;90.78;42.80;;;26.50;47.80;;;;;;7694491;22;83923;-49
2022/10/18 08:50:56;;;;;;;87.63;40.38;;;26.50;47.80;;;;;;7693363;22;84146;-49
2022/10/18 08:53:57;;;;;;;72.03;36.85;;;26.50;47.70;;;;;;7690880;22;84808;-47
2022/10/18 08:56:57;;;;;;;70.88;32.53;;;26.50;47.60;;;;;;7696336;22;83541;-49
2022/10/18 08:59:58;;;;;;;55.80;29.10;;;26.60;47.50;;;;;;7667948;22;85845;-53
2022/10/18 09:02:58;;;;;;;53.22;27.13;;;26.60;47.30;;;;;;7709374;22;83082;-58
2022/10/18 09:05:59;;;;;;;45.58;23.90;;;26.60;47.20;;;;;;7702726;22;84596;-59
2022/10/18 09:08:59;;;;;;;43.47;22.25;;;26.70;47.10;;;;;;7708526;22;82879;-59
2022/10/18 09:12:00;;;;;;;40.08;20.88;;;26.70;47.20;;;;;;7709903;22;85231;-49
2022/10/18 09:15:01;;;;;;;38.55;19.25;;;26.70;47.10;;;;;;7709149;22;83021;-51
2022/10/18 09:18:01;;;;;;;35.78;17.85;;;26.70;47.20;;;;;;7714062;22;83670;-50
2022/10/18 09:21:02;;;;;;;32.05;16.88;;;26.70;47.30;;;;;;7711368;22;83043;-49
2022/10/18 09:24:02;;;;;;;31.10;15.82;;;26.70;47.30;;;;;;7708953;22;83346;-51
2022/10/18 09:27:03;;;;;;;28.23;15.23;;;26.80;47.40;;;;;;7708263;22;84022;-51
2022/10/18 09:30:03;;;;;;;29.92;16.17;;;26.80;47.30;;;;;;7712303;22;83057;-49
2022/10/18 09:33:04;;;;;;;26.40;13.90;;;26.90;47.30;;;;;;7712149;22;83054;-50
2022/10/18 09:36:04;;;;;;;22.85;12.27;;;26.90;46.80;;;;;;7713220;22;83383;-50
2022/10/18 09:39:05;;;;;;;22.35;11.82;;;27.00;47.00;;;;;;7709196;22;83196;-51
2022/10/18 09:42:05;;;;;;;20.15;11.23;;;27.00;46.80;;;;;;7677046;22;83476;-51
2022/10/18 09:45:06;;;;;;;19.10;10.38;;;27.10;46.10;;;;;;7706917;22;83302;-53
2022/10/18 09:48:07;;;;;;;22.58;11.13;;;27.10;46.30;;;;;;7709322;22;83445;-51
2022/10/18 09:51:10;;;;;;;16.15;10.02;;;27.20;46.30;;;;;;7711835;22;83922;-53
2022/10/18 09:54:10;;;;;;;16.50;9.98;;;27.20;46.00;;;;;;7711881;22;82977;-50
2022/10/18 09:57:11;;;;;;;19.63;9.50;;;27.30;46.10;;;;;;7711892;22;83475;-51
2022/10/18 10:00:11;;;;;;;14.95;9.18;;;27.40;46.20;;;;;;7716208;22;82743;-47
2022/10/18 10:03:13;;;;;;;14.75;8.40;;;27.40;46.40;;;;;;7716667;22;80583;-60
2022/10/18 10:06:14;;;;;;;15.20;9.18;;;27.50;46.40;;;;;;7711070;22;80976;-62
2022/10/18 10:09:14;;;;;;;15.98;9.07;;;27.50;46.30;;;;;;7710145;22;81100;-62
2022/10/18 10:12:15;;;;;;;12.90;8.18;;;27.50;46.40;;;;;;7716548;22;80441;-60
2022/10/18 10:15:16;;;;;;;13.82;8.18;;;27.60;46.50;;;;;;7718071;22;80427;-62
2022/10/18 10:18:17;;;;;;;13.32;7.53;;;27.60;46.30;;;;;;7708880;22;80355;-62
2022/10/18 10:21:18;;;;;;;12.35;8.00;;;27.70;46.10;;;;;;7713391;22;82143;-64
2022/10/18 10:24:18;;;;;;;14.18;8.27;;;27.70;46.20;;;;;;7717494;22;80797;-64
2022/10/18 10:27:19;;;;;;;9.90;7.25;;;27.70;46.00;;;;;;7716616;22;81238;-65
2022/10/18 10:30:19;;;;;;;13.75;6.80;;;27.80;46.10;;;;;;7716621;22;80272;-66
2022/10/18 10:33:20;;;;;;;12.52;7.28;;;27.80;45.50;;;;;;7714770;22;80235;-65
2022/10/18 10:36:20;;;;;;;12.93;7.15;;;27.80;45.60;;;;;;7717716;22;80634;-64
2022/10/18 10:39:21;;;;;;;12.07;6.43;;;27.90;45.80;;;;;;7713398;22;80284;-54
2022/10/18 10:42:21;;;;;;;11.68;6.50;;;27.90;45.90;;;;;;7712046;22;81518;-55
2022/10/18 10:45:22;;;;;;;10.73;6.60;;;27.90;45.70;;;;;;7717149;22;80399;-54
2022/10/18 10:48:22;;;;;;;12.43;6.60;;;27.90;45.20;;;;;;7714539;22;80431;-53
2022/10/18 10:51:23;;;;;;;8.93;5.70;;;27.90;44.90;;;;;;7688873;22;81904;-54
2022/10/18 10:54:23;;;;;;;10.60;6.00;;;28.00;45.00;;;;;;7714766;22;80792;-55
2022/10/18 10:57:24;;;;;;;8.48;5.43;;;28.00;44.80;;;;;;7687477;22;81848;-53
2022/10/18 11:00:24;;;;;;;10.35;5.47;;;28.00;44.80;;;;;;7715944;22;80588;-49
2022/10/18 11:03:25;;;;;;;8.18;5.45;;;28.00;44.10;;;;;;7714320;22;82376;-51
2022/10/18 11:06:25;;;;;;;12.30;5.65;;;28.10;44.50;;;;;;7701362;22;81635;-52
2022/10/18 11:09:26;;;;;;;9.50;5.20;;;28.10;44.40;;;;;;7711889;22;80605;-53
2022/10/18 11:12:27;;;;;;;8.20;5.60;;;28.10;44.40;;;;;;7714840;22;80639;-53
2022/10/18 11:15:27;;;;;;;9.52;5.32;;;28.10;44.20;;;;;;7713277;22;80160;-51
2022/10/18 11:18:28;;;;;;;9.52;5.65;;;28.00;43.90;;;;;;7713385;22;80218;-52
2022/10/18 11:21:29;;;;;;;8.25;5.18;;;28.00;44.00;;;;;;7712638;22;80226;-53
2022/10/18 11:24:29;;;;;;;8.02;5.70;;;28.10;43.80;;;;;;7716881;22;80185;-54
2022/10/18 11:27:30;;;;;;;10.18;5.30;;;28.20;43.70;;;;;;7715788;22;81335;-53
2022/10/18 11:30:30;;;;;;;6.30;4.78;;;28.20;43.70;;;;;;7715473;22;80241;-50
2022/10/18 11:33:31;;;;;;;8.45;5.35;;;28.30;43.90;;;;;;7715133;22;82124;-53
2022/10/18 11:36:32;;;;;;;7.13;4.55;;;28.30;43.90;;;;;;7716407;22;80441;-53
2022/10/18 11:39:32;;;;;;;9.55;5.30;;;28.30;44.10;;;;;;7706932;22;80474;-54
2022/10/18 11:42:33;;;;;;;8.10;4.82;;;28.40;44.00;;;;;;7715075;22;82278;-52
2022/10/18 11:45:33;;;;;;;10.00;5.18;;;28.40;43.90;;;;;;7715176;22;80655;-52
2022/10/18 11:48:34;;;;;;;8.82;4.75;;;28.40;44.10;;;;;;7715200;22;81426;-49
2022/10/18 11:51:34;;;;;;;7.30;4.55;;;28.40;43.80;;;;;;7716149;22;81033;-67
2022/10/18 11:54:35;;;;;;;6.78;4.40;;;28.40;43.70;;;;;;7714632;22;81043;-66
2022/10/18 11:57:35;;;;;;;9.07;5.25;;;28.50;43.30;;;;;;7714147;22;81064;-65
2022/10/18 12:00:38;;;;;;;10.25;4.72;;;28.50;43.80;;;;;;7716357;22;81102;-63
2022/10/18 12:03:38;;;;;;;7.57;4.53;;;28.50;43.70;;;;;;7717039;22;80839;-64
2022/10/18 12:06:39;;;;;;;8.93;4.88;;;28.50;43.80;;;;;;7714618;22;82344;-64
2022/10/18 12:09:40;;;;;;;11.80;5.25;;;28.50;43.60;;;;;;7714223;22;80418;-65
2022/10/18 12:12:40;;;;;;;13.93;6.05;;;28.50;43.60;;;;;;7715191;22;80333;-66
2022/10/18 12:15:41;;;;;;;16.15;6.90;;;28.50;43.90;;;;;;7717168;22;80372;-65
2022/10/18 12:18:41;;;;;;;18.23;6.90;;;28.50;43.90;;;;;;7714030;22;80810;-65
2022/10/18 12:21:42;;;;;;;17.90;7.22;;;28.50;44.30;;;;;;7716562;22;80390;-66
2022/10/18 12:24:42;;;;;;;18.02;7.43;;;28.50;44.20;;;;;;7715744;22;80176;-65
2022/10/18 12:27:43;;;;;;;17.30;7.45;;;28.60;44.10;;;;;;7716026;22;80376;-65
2022/10/18 12:30:43;;;;;;;23.30;6.97;;;28.50;44.30;;;;;;7716111;22;80253;-65
2022/10/18 12:33:44;;;;;;;20.52;7.25;;;28.60;44.40;;;;;;7715458;22;81219;-65
2022/10/18 12:36:44;;;;;;;15.90;7.22;;;28.50;44.50;;;;;;7717164;22;80578;-67
2022/10/18 12:39:45;;;;;;;14.13;7.38;;;28.60;44.20;;;;;;7718749;22;81040;-66
2022/10/18 12:42:45;;;;;;;16.50;7.45;;;28.60;44.10;;;;;;7713898;22;81707;-65
2022/10/18 12:45:46;;;;;;;14.82;7.15;;;28.50;43.70;;;;;;7714920;22;80504;-65
2022/10/18 12:48:47;;;;;;;11.48;6.70;;;28.50;43.90;;;;;;7716221;22;81025;-65
2022/10/18 12:51:48;;;;;;;15.38;7.65;;;28.60;44.00;;;;;;7718579;22;80781;-64
2022/10/18 12:54:48;;;;;;;10.20;7.00;;;28.50;43.60;;;;;;7713579;22;80111;-63
2022/10/18 12:57:49;;;;;;;13.40;7.43;;;28.50;43.40;;;;;;7715083;22;80568;-65
2022/10/18 13:00:49;;;;;;;9.70;6.45;;;28.50;43.60;;;;;;7715801;22;80347;-64
2022/10/18 13:03:50;;;;;;;8.95;6.40;;;28.50;43.50;;;;;;7717245;22;81406;-65
2022/10/18 13:06:50;;;;;;;12.80;6.80;;;28.50;43.50;;;;;;7716839;22;80938;-64
2022/10/18 13:09:51;;;;;;;11.68;6.30;;;28.50;43.20;;;;;;7711241;22;81138;-66
2022/10/18 13:12:52;;;;;;;11.43;6.60;;;28.50;43.10;;;;;;7716789;22;81205;-66
2022/10/18 13:15:52;;;;;;;11.05;5.97;;;28.50;43.10;;;;;;7715424;22;80698;-65
2022/10/18 13:18:53;;;;;;;12.30;6.00;;;28.40;42.90;;;;;;7714979;22;80513;-64
2022/10/18 13:21:53;;;;;;;15.93;6.13;;;28.40;42.80;;;;;;7715164;22;80785;-64
2022/10/18 13:24:54;;;;;;;19.17;10.82;;;28.40;42.90;;;;;;7715766;22;81229;-66
2022/10/18 13:27:54;;;;;;;21.38;13.88;;;28.40;42.70;;;;;;7711266;22;82696;-66
2022/10/18 13:30:55;;;;;;;34.97;19.48;;;28.40;41.90;;;;;;7683674;22;84012;-65
2022/10/18 13:33:55;;;;;;;59.03;30.10;;;28.40;41.90;;;;;;7709019;22;83637;-63
2022/10/18 13:36:56;;;;;;;60.67;34.67;;;28.40;42.30;;;;;;7706687;22;83361;-69
2022/10/18 13:39:56;;;;;;;70.07;32.15;;;28.40;42.10;;;;;;7713761;22;84276;-68
2022/10/18 13:42:57;;;;;;;52.50;27.02;;;28.40;40.40;;;;;;7709768;22;83017;-60
2022/10/18 13:45:57;;;;;;;34.65;18.65;;;28.40;40.70;;;;;;7711611;22;82861;-61
2022/10/18 13:48:58;;;;;;;29.15;17.23;;;28.40;39.80;;;;;;7711343;22;83258;-61
2022/10/18 13:51:58;;;;;;;24.20;12.85;;;28.40;39.80;;;;;;7711854;22;83590;-62
2022/10/18 13:54:59;;;;;;;21.52;11.02;;;28.40;39.20;;;;;;7708285;22;82843;-61
2022/10/18 13:58:00;;;;;;;19.85;11.00;;;28.30;38.70;;;;;;7706121;22;82759;-63
2022/10/18 14:01:00;;;;;;;21.40;10.40;;;28.30;38.90;;;;;;7711152;22;83480;-63
2022/10/18 14:04:01;;;;;;;19.38;10.02;;;28.30;39.60;;;;;;7712371;22;86144;-62
2022/10/18 14:07:01;;;;;;;20.25;9.75;;;28.30;39.50;;;;;;7703438;22;83603;-61
2022/10/18 14:10:02;;;;;;;21.95;9.43;;;28.30;40.40;;;;;;7717336;22;81794;-61
2022/10/18 14:13:02;;;;;;;12.73;8.55;;;28.30;40.20;;;;;;7690822;22;80189;-60
2022/10/18 14:16:03;;;;;;;15.52;8.63;;;28.30;40.60;;;;;;7716110;22;80408;-60
2022/10/18 14:19:04;;;;;;;13.57;8.00;;;28.30;41.20;;;;;;7715915;22;81024;-62
2022/10/18 14:22:04;;;;;;;12.73;7.95;;;28.30;41.20;;;;;;7709172;22;82108;-60
2022/10/18 14:25:05;;;;;;;17.27;8.43;;;28.30;41.30;;;;;;7715567;22;80267;-59
2022/10/18 14:28:06;;;;;;;16.60;7.90;;;28.30;41.40;;;;;;7708714;22;82163;-59
2022/10/18 14:31:07;;;;;;;15.43;8.43;;;28.30;41.50;;;;;;7719263;22;80377;-60
2022/10/18 14:34:07;;;;;;;14.32;8.63;;;28.30;41.40;;;;;;7714204;22;80817;-61
2022/10/18 14:37:08;;;;;;;16.17;8.35;;;28.40;41.60;;;;;;7711314;22;81512;-67
2022/10/18 14:40:08;;;;;;;13.43;7.90;;;28.70;41.20;;;;;;7714115;22;80545;-68
2022/10/18 14:43:09;;;;;;;14.35;7.53;;;29.00;40.90;;;;;;7715900;22;80968;-67
2022/10/18 14:46:09;;;;;;;14.93;8.38;;;29.00;41.20;;;;;;7716637;22;81165;-60
2022/10/18 14:49:10;;;;;;;14.68;7.75;;;28.90;41.40;;;;;;7718126;22;80521;-69
2022/10/18 14:52:10;;;;;;;16.10;8.75;;;28.80;41.40;;;;;;7714536;22;79990;-71
2022/10/18 14:55:11;;;;;;;14.45;7.85;;;28.80;40.50;;;;;;7719016;22;80345;-67
2022/10/18 14:58:11;;;;;;;13.77;7.85;;;28.70;39.80;;;;;;7684017;22;80696;-74
2022/10/18 15:01:12;;;;;;;11.07;7.80;;;28.50;41.10;;;;;;7690471;22;81981;-66
2022/10/18 15:04:12;;;;;;;16.48;8.20;;;28.40;41.40;;;;;;7716848;22;80404;-67
2022/10/18 15:07:13;;;;;;;16.48;8.40;;;28.30;41.30;;;;;;7717814;22;81153;-66
2022/10/18 15:10:13;;;;;;;13.57;8.82;;;28.10;41.70;;;;;;7719135;22;80677;-70
2022/10/18 15:13:14;;;;;;;15.35;8.50;;;28.00;42.00;;;;;;7717604;22;80794;-63
2022/10/18 15:16:15;;;;;;;23.45;10.20;;;27.90;42.40;;;;;;7711981;22;80296;-66
2022/10/18 15:19:15;;;;;;;16.05;9.20;;;27.80;42.70;;;;;;7713652;22;82865;-65
2022/10/18 15:22:16;;;;;;;15.80;9.20;;;27.70;42.80;;;;;;7719042;22;84055;-68
2022/10/18 15:25:16;;;;;;;18.30;9.75;;;27.60;43.10;;;;;;7717719;22;81775;-69
2022/10/18 15:28:17;;;;;;;19.33;8.35;;;27.40;43.30;;;;;;7718205;22;80999;-68
2022/10/18 15:31:17;;;;;;;17.02;8.10;;;27.40;43.30;;;;;;7716295;22;80531;-71
2022/10/18 15:34:18;;;;;;;15.95;8.65;;;27.30;43.90;;;;;;7719436;22;80865;-55
2022/10/18 15:37:19;;;;;;;16.38;9.07;;;27.20;44.20;;;;;;7718925;22;80515;-53
2022/10/18 15:40:19;;;;;;;19.27;9.27;;;27.10;44.00;;;;;;7715541;22;81366;-54
2022/10/18 15:43:20;;;;;;;18.60;9.13;;;27.10;44.20;;;;;;7719867;22;80205;-55
2022/10/18 15:46:20;;;;;;;15.60;8.20;;;27.00;44.00;;;;;;7714148;22;81285;-53
2022/10/18 15:49:21;;;;;;;15.93;7.95;;;26.90;45.00;;;;;;7717640;22;80366;-55
2022/10/18 15:52:21;;;;;;;14.07;7.30;;;26.90;44.70;;;;;;7712016;22;81053;-57
2022/10/18 15:55:22;;;;;;;16.90;8.05;;;26.90;44.30;;;;;;7720456;22;80332;-54
2022/10/18 15:58:22;;;;;;;15.25;8.10;;;26.80;44.50;;;;;;7683771;22;80162;-56
2022/10/18 16:01:23;;;;;;;18.02;7.90;;;26.80;44.60;;;;;;7717896;22;80058;-54